Time,TemperatureF,DewpointF,PressureIn,WindDirection,WindDirectionDegrees,WindSpeedMPH,WindSpeedGustMPH,Humidity,HourlyPrecipIn,Conditions,Clouds,dailyrainin,SolarRadiationWatts/m^2,SoftwareType,DateUTC
2013-03-07 00:00:00,33.4,22.6,30.47,WSW,247,4.0,0.0,64,0.00,,,0.00,0,WeatherHawk,2013-03-07 05:00:00,
2013-03-07 00:01:00,33.5,22.6,30.47,West,271,3.0,0.0,64,0.00,,,0.00,0,WeatherHawk,2013-03-07 05:01:00,
2013-03-07 00:02:00,33.5,22.6,30.47,North,349,1.0,0.0,64,0.00,,,0.00,0,WeatherHawk,2013-03-07 05:02:00,
2013-03-07 00:03:00,33.4,22.6,30.47,NW,324,0.0,0.0,64,0.00,,,0.00,0,WeatherHawk,2013-03-07 05:03:00,
2013-03-07 00:08:00,33.4,22.9,30.47,WSW,237,2.0,0.0,65,0.00,,,0.00,0,WeatherHawk,2013-03-07 05:08:00,
2013-03-07 00:13:00,33.3,22.9,30.47,West,270,2.0,0.0,65,0.00,,,0.00,0,WeatherHawk,2013-03-07 05:13:00,
2013-03-07 00:18:00,33.5,23.0,30.47,SW,225,2.0,0.0,65,0.00,,,0.00,0,WeatherHawk,2013-03-07 05:18:00,
2013-03-07 00:23:00,33.4,22.9,30.47,SSE,166,2.0,0.0,65,0.00,,,0.00,0,WeatherHawk,2013-03-07 05:23:00,
2013-03-07 00:28:00,33.2,23.1,30.47,WSW,242,1.0,0.0,66,0.00,,,0.00,0,WeatherHawk,2013-03-07 05:28:00,
2013-03-07 00:33:00,33.3,23.2,30.47,West,260,4.0,0.0,66,0.00,,,0.00,0,WeatherHawk,2013-03-07 05:33:00,
2013-03-07 00:38:00,33.2,23.1,30.47,WSW,258,2.0,0.0,66,0.00,,,0.00,1,WeatherHawk,2013-03-07 05:38:00,
2013-03-07 00:43:00,33.2,23.5,30.48,SW,231,1.0,0.0,67,0.00,,,0.00,0,WeatherHawk,2013-03-07 05:43:00,
2013-03-07 00:48:00,33.2,23.1,30.47,West,264,0.0,0.0,66,0.00,,,0.00,0,WeatherHawk,2013-03-07 05:48:00,
2013-03-07 00:53:00,33.3,23.2,30.47,WSW,243,1.0,0.0,66,0.00,,,0.00,0,WeatherHawk,2013-03-07 05:53:00,
2013-03-07 00:58:00,33.3,22.8,30.47,NW,308,3.0,0.0,65,0.00,,,0.00,0,WeatherHawk,2013-03-07 05:58:00,
2013-03-07 01:03:00,33.2,22.7,30.48,WNW,291,0.0,0.0,65,0.00,,,0.00,1,WeatherHawk,2013-03-07 06:03:00,
2013-03-07 01:08:00,33.2,22.7,30.48,West,275,3.0,0.0,65,0.00,,,0.00,0,WeatherHawk,2013-03-07 06:08:00,
2013-03-07 01:13:00,33.1,23.0,30.47,West,263,2.0,0.0,66,0.00,,,0.00,0,WeatherHawk,2013-03-07 06:13:00,
2013-03-07 01:18:00,33.1,23.0,30.47,WSW,254,0.0,0.0,66,0.00,,,0.00,1,WeatherHawk,2013-03-07 06:18:00,
2013-03-07 01:23:00,33.1,23.0,30.47,WNW,296,3.0,0.0,66,0.00,,,0.00,1,WeatherHawk,2013-03-07 06:23:00,
2013-03-07 01:28:00,33.0,22.9,30.47,SW,234,1.0,0.0,66,0.00,,,0.00,0,WeatherHawk,2013-03-07 06:28:00,
2013-03-07 01:33:00,33.1,23.0,30.47,SW,234,0.0,0.0,66,0.00,,,0.00,1,WeatherHawk,2013-03-07 06:33:00,
2013-03-07 01:38:00,33.1,23.0,30.47,NNE,17,2.0,0.0,66,0.00,,,0.00,0,WeatherHawk,2013-03-07 06:38:00,
2013-03-07 01:44:00,33.2,23.1,30.48,West,265,0.0,0.0,66,0.00,,,0.00,0,WeatherHawk,2013-03-07 06:44:00,
2013-03-07 01:49:00,33.1,22.7,30.47,SW,229,1.0,0.0,65,0.00,,,0.00,1,WeatherHawk,2013-03-07 06:49:00,
2013-03-07 01:54:00,33.1,22.6,30.48,NW,310,2.0,0.0,65,0.00,,,0.00,0,WeatherHawk,2013-03-07 06:54:00,
2013-03-07 01:59:00,33.0,22.2,30.47,West,264,0.0,0.0,64,0.00,,,0.00,0,WeatherHawk,2013-03-07 06:59:00,
2013-03-07 02:04:00,33.0,22.2,30.48,NE,39,1.0,0.0,64,0.00,,,0.00,0,WeatherHawk,2013-03-07 07:04:00,
2013-03-07 02:09:00,33.0,22.1,30.47,West,281,0.0,0.0,64,0.00,,,0.00,1,WeatherHawk,2013-03-07 07:09:00,
2013-03-07 02:14:00,33.0,22.6,30.48,WSW,252,0.0,0.0,65,0.00,,,0.00,0,WeatherHawk,2013-03-07 07:14:00,
2013-03-07 02:19:00,33.1,22.6,30.48,WNW,298,0.0,0.0,65,0.00,,,0.00,0,WeatherHawk,2013-03-07 07:19:00,
2013-03-07 02:24:00,33.0,22.5,30.48,WNW,288,0.0,0.0,65,0.00,,,0.00,0,WeatherHawk,2013-03-07 07:24:00,
2013-03-07 02:29:00,33.0,22.1,30.48,NW,313,5.0,0.0,64,0.00,,,0.00,0,WeatherHawk,2013-03-07 07:29:00,
2013-03-07 02:34:00,33.0,22.1,30.48,WNW,291,0.0,0.0,64,0.00,,,0.00,0,WeatherHawk,2013-03-07 07:34:00,
2013-03-07 02:39:00,32.9,22.5,30.47,WSW,252,1.0,0.0,65,0.00,,,0.00,0,WeatherHawk,2013-03-07 07:39:00,
2013-03-07 02:44:00,32.9,22.1,30.48,West,276,1.0,0.0,64,0.00,,,0.00,0,WeatherHawk,2013-03-07 07:44:00,
2013-03-07 02:49:00,32.9,22.1,30.48,West,275,3.0,0.0,64,0.00,,,0.00,0,WeatherHawk,2013-03-07 07:49:00,
2013-03-07 02:54:00,33.0,22.5,30.47,NNW,337,4.0,0.0,65,0.00,,,0.00,1,WeatherHawk,2013-03-07 07:54:00,
2013-03-07 02:59:00,33.0,22.5,30.48,West,279,0.0,0.0,65,0.00,,,0.00,0,WeatherHawk,2013-03-07 07:59:00,
2013-03-07 03:04:00,33.0,22.5,30.48,SW,220,0.0,0.0,65,0.00,,,0.00,1,WeatherHawk,2013-03-07 08:04:00,
2013-03-07 03:09:00,33.0,22.5,30.48,WSW,252,0.0,0.0,65,0.00,,,0.00,0,WeatherHawk,2013-03-07 08:09:00,
2013-03-07 03:14:00,32.9,22.4,30.48,West,271,0.0,0.0,65,0.00,,,0.00,0,WeatherHawk,2013-03-07 08:14:00,
2013-03-07 03:19:00,32.9,22.5,30.47,NW,307,3.0,0.0,65,0.00,,,0.00,0,WeatherHawk,2013-03-07 08:19:00,
2013-03-07 03:24:00,32.9,22.4,30.48,WNW,283,4.0,0.0,65,0.00,,,0.00,0,WeatherHawk,2013-03-07 08:24:00,
2013-03-07 03:29:00,33.0,22.2,30.48,West,260,2.0,0.0,64,0.00,,,0.00,1,WeatherHawk,2013-03-07 08:29:00,
2013-03-07 03:34:00,32.9,22.0,30.47,West,275,2.0,0.0,64,0.00,,,0.00,0,WeatherHawk,2013-03-07 08:34:00,
2013-03-07 03:39:00,32.9,22.1,30.47,North,8,5.0,0.0,64,0.00,,,0.00,0,WeatherHawk,2013-03-07 08:39:00,
2013-03-07 03:44:00,32.9,21.7,30.48,WSW,251,4.0,0.0,63,0.00,,,0.00,0,WeatherHawk,2013-03-07 08:44:00,
2013-03-07 03:49:00,32.9,21.7,30.48,West,273,3.0,0.0,63,0.00,,,0.00,0,WeatherHawk,2013-03-07 08:49:00,
2013-03-07 03:54:00,33.0,22.2,30.48,North,349,0.0,0.0,64,0.00,,,0.00,0,WeatherHawk,2013-03-07 08:54:00,
2013-03-07 03:59:00,32.9,22.1,30.48,West,275,3.0,0.0,64,0.00,,,0.00,0,WeatherHawk,2013-03-07 08:59:00,
2013-03-07 04:06:00,32.9,22.4,30.48,WSW,247,3.0,0.0,65,0.00,,,0.00,0,WeatherHawk,2013-03-07 09:06:00,
2013-03-07 04:11:00,32.9,22.4,30.49,NW,309,4.0,0.0,65,0.00,,,0.00,1,WeatherHawk,2013-03-07 09:11:00,
2013-03-07 04:16:00,32.9,22.5,30.49,NE,39,1.0,0.0,65,0.00,,,0.00,0,WeatherHawk,2013-03-07 09:16:00,
2013-03-07 04:21:00,32.9,22.1,30.49,NW,314,4.0,0.0,64,0.00,,,0.00,0,WeatherHawk,2013-03-07 09:21:00,
2013-03-07 04:26:00,33.0,22.5,30.49,WNW,284,1.0,0.0,65,0.00,,,0.00,0,WeatherHawk,2013-03-07 09:26:00,
2013-03-07 04:31:00,33.0,22.1,30.49,West,281,1.0,0.0,64,0.00,,,0.00,1,WeatherHawk,2013-03-07 09:31:00,
2013-03-07 04:36:00,32.8,22.0,30.49,WSW,251,2.0,0.0,64,0.00,,,0.00,0,WeatherHawk,2013-03-07 09:36:00,
2013-03-07 04:41:00,32.9,22.0,30.49,WNW,287,3.0,0.0,64,0.00,,,0.00,1,WeatherHawk,2013-03-07 09:41:00,
2013-03-07 04:46:00,32.9,22.1,30.50,WSW,256,0.0,0.0,64,0.00,,,0.00,1,WeatherHawk,2013-03-07 09:46:00,
2013-03-07 04:51:00,32.9,22.1,30.49,WNW,299,0.0,0.0,64,0.00,,,0.00,0,WeatherHawk,2013-03-07 09:51:00,
2013-03-07 04:56:00,32.9,22.1,30.50,West,260,0.0,0.0,64,0.00,,,0.00,0,WeatherHawk,2013-03-07 09:56:00,
2013-03-07 05:01:00,32.9,21.7,30.49,West,265,2.0,0.0,63,0.00,,,0.00,0,WeatherHawk,2013-03-07 10:01:00,
2013-03-07 05:06:00,32.9,21.7,30.50,WSW,248,4.0,0.0,63,0.00,,,0.00,0,WeatherHawk,2013-03-07 10:06:00,
2013-03-07 05:11:00,32.9,21.3,30.50,WSW,253,2.0,0.0,62,0.00,,,0.00,0,WeatherHawk,2013-03-07 10:11:00,
2013-03-07 05:16:00,32.9,21.4,30.50,West,260,0.0,0.0,62,0.00,,,0.00,0,WeatherHawk,2013-03-07 10:16:00,
2013-03-07 05:22:00,33.0,21.0,30.50,West,272,1.0,0.0,61,0.00,,,0.00,0,WeatherHawk,2013-03-07 10:22:00,
2013-03-07 05:27:00,33.0,21.4,30.50,WSW,248,3.0,0.0,62,0.00,,,0.00,0,WeatherHawk,2013-03-07 10:27:00,
2013-03-07 05:32:00,32.8,20.8,30.50,WNW,297,4.0,0.0,61,0.00,,,0.00,1,WeatherHawk,2013-03-07 10:32:00,
2013-03-07 05:37:00,32.8,21.3,30.51,West,267,2.0,0.0,62,0.00,,,0.00,0,WeatherHawk,2013-03-07 10:37:00,
2013-03-07 05:42:00,32.9,21.3,30.51,West,268,2.0,0.0,62,0.00,,,0.00,0,WeatherHawk,2013-03-07 10:42:00,
2013-03-07 05:47:00,32.9,21.0,30.52,WNW,289,2.0,0.0,61,0.00,,,0.00,1,WeatherHawk,2013-03-07 10:47:00,
2013-03-07 05:52:00,33.0,21.5,30.52,NNW,343,2.0,0.0,62,0.00,,,0.00,0,WeatherHawk,2013-03-07 10:52:00,
2013-03-07 05:57:00,33.5,21.9,30.52,WSW,242,3.0,0.0,62,0.00,,,0.00,1,WeatherHawk,2013-03-07 10:57:00,
2013-03-07 06:02:00,33.1,20.8,30.52,WNW,286,1.0,0.0,60,0.00,,,0.00,1,WeatherHawk,2013-03-07 11:02:00,
2013-03-07 06:07:00,34.4,21.9,30.52,West,273,3.0,0.0,60,0.00,,,0.00,0,WeatherHawk,2013-03-07 11:07:00,
2013-03-07 06:12:00,32.8,20.5,30.52,WNW,283,6.0,0.0,60,0.00,,,0.00,0,WeatherHawk,2013-03-07 11:12:00,
2013-03-07 06:17:00,34.5,22.0,30.52,NE,42,1.0,0.0,60,0.00,,,0.00,1,WeatherHawk,2013-03-07 11:17:00,
2013-03-07 06:23:00,32.9,20.2,30.52,NW,322,1.0,0.0,59,0.00,,,0.00,0,WeatherHawk,2013-03-07 11:23:00,
2013-03-07 06:28:00,33.8,21.4,30.53,West,260,0.0,0.0,60,0.00,,,0.00,0,WeatherHawk,2013-03-07 11:28:00,
2013-03-07 06:33:00,32.8,20.0,30.52,WSW,258,3.0,0.0,59,0.00,,,0.00,1,WeatherHawk,2013-03-07 11:33:00,
2013-03-07 06:38:00,33.0,20.3,30.53,WNW,287,2.0,0.0,59,0.00,,,0.00,1,WeatherHawk,2013-03-07 11:38:00,
2013-03-07 06:43:00,33.3,20.5,30.52,WSW,251,1.0,0.0,59,0.00,,,0.00,1,WeatherHawk,2013-03-07 11:43:00,
2013-03-07 06:48:00,34.0,21.6,30.53,WSW,246,0.0,0.0,60,0.00,,,0.00,0,WeatherHawk,2013-03-07 11:48:00,
2013-03-07 06:53:00,32.8,20.4,30.53,West,261,3.0,0.0,60,0.00,,,0.00,1,WeatherHawk,2013-03-07 11:53:00,
2013-03-07 06:58:00,33.8,21.4,30.53,WNW,286,0.0,0.0,60,0.00,,,0.00,2,WeatherHawk,2013-03-07 11:58:00,
2013-03-07 07:03:00,34.6,21.8,30.53,SW,216,1.0,0.0,59,0.00,,,0.00,3,WeatherHawk,2013-03-07 12:03:00,
2013-03-07 07:08:00,32.7,20.0,30.54,West,261,2.0,0.0,59,0.00,,,0.00,3,WeatherHawk,2013-03-07 12:08:00,
2013-03-07 07:13:00,35.0,22.5,30.54,West,281,0.0,0.0,60,0.00,,,0.00,5,WeatherHawk,2013-03-07 12:13:00,
2013-03-07 07:18:00,33.5,20.7,30.55,WSW,252,0.0,0.0,59,0.00,,,0.00,8,WeatherHawk,2013-03-07 12:18:00,
2013-03-07 07:23:00,33.1,20.4,30.54,WNW,282,0.0,0.0,59,0.00,,,0.00,8,WeatherHawk,2013-03-07 12:23:00,
2013-03-07 07:28:00,32.8,19.7,30.54,West,271,2.0,0.0,58,0.00,,,0.00,10,WeatherHawk,2013-03-07 12:28:00,
2013-03-07 07:33:00,33.6,20.8,30.55,West,266,0.0,0.0,59,0.00,,,0.00,13,WeatherHawk,2013-03-07 12:33:00,
2013-03-07 07:38:00,33.4,20.3,30.55,West,270,3.0,0.0,58,0.00,,,0.00,11,WeatherHawk,2013-03-07 12:38:00,
2013-03-07 07:43:00,34.7,21.5,30.56,WSW,237,0.0,0.0,58,0.00,,,0.00,14,WeatherHawk,2013-03-07 12:43:00,
2013-03-07 07:48:00,34.4,21.2,30.55,WSW,239,0.0,0.0,58,0.00,,,0.00,17,WeatherHawk,2013-03-07 12:48:00,
2013-03-07 07:53:00,33.7,19.7,30.56,West,276,0.0,0.0,56,0.00,,,0.00,22,WeatherHawk,2013-03-07 12:53:00,
2013-03-07 07:59:00,32.8,18.9,30.56,West,265,0.0,0.0,56,0.00,,,0.00,27,WeatherHawk,2013-03-07 12:59:00,
2013-03-07 08:04:00,33.6,19.6,30.56,WNW,285,3.0,0.0,56,0.00,,,0.00,29,WeatherHawk,2013-03-07 13:04:00,
2013-03-07 08:09:00,33.3,18.5,30.56,West,263,2.0,0.0,54,0.00,,,0.00,32,WeatherHawk,2013-03-07 13:09:00,
2013-03-07 08:14:00,33.4,18.6,30.56,West,266,3.0,0.0,54,0.00,,,0.00,33,WeatherHawk,2013-03-07 13:14:00,
2013-03-07 08:19:00,33.7,19.2,30.56,WNW,286,0.0,0.0,55,0.00,,,0.00,40,WeatherHawk,2013-03-07 13:19:00,
2013-03-07 08:24:00,33.4,18.5,30.56,WSW,242,3.0,0.0,54,0.00,,,0.00,44,WeatherHawk,2013-03-07 13:24:00,
2013-03-07 08:29:00,35.1,20.6,30.56,WNW,284,1.0,0.0,55,0.00,,,0.00,43,WeatherHawk,2013-03-07 13:29:00,
2013-03-07 08:34:00,33.5,18.3,30.56,SSW,200,1.0,0.0,53,0.00,,,0.00,50,WeatherHawk,2013-03-07 13:34:00,
2013-03-07 08:39:00,34.6,19.3,30.55,WNW,282,1.0,-999.0,53,0.00,,,0.00,53,WeatherHawk,2013-03-07 13:39:00,
2013-03-07 08:44:00,34.1,18.7,30.56,West,263,0.0,0.0,53,0.00,,,0.00,54,WeatherHawk,2013-03-07 13:44:00,
2013-03-07 08:49:00,33.7,18.4,30.56,WNW,301,2.0,0.0,53,0.00,,,0.00,57,WeatherHawk,2013-03-07 13:49:00,
2013-03-07 08:54:00,34.8,19.4,30.56,SW,231,0.0,0.0,53,0.00,,,0.00,59,WeatherHawk,2013-03-07 13:54:00,
2013-03-07 08:59:00,34.0,18.3,30.56,West,264,3.0,0.0,52,0.00,,,0.00,63,WeatherHawk,2013-03-07 13:59:00,
2013-03-07 09:04:00,34.5,18.7,30.57,West,261,2.0,0.0,52,0.00,,,0.00,68,WeatherHawk,2013-03-07 14:04:00,
2013-03-07 09:09:00,34.5,17.8,30.56,SW,236,1.0,0.0,50,0.00,,,0.00,74,WeatherHawk,2013-03-07 14:09:00,
2013-03-07 09:14:00,34.6,17.9,30.56,SSW,209,2.0,0.0,50,0.00,,,0.00,79,WeatherHawk,2013-03-07 14:14:00,
2013-03-07 09:19:00,34.8,17.6,30.56,NW,306,0.0,-999.0,49,0.00,,,0.00,84,WeatherHawk,2013-03-07 14:19:00,
2013-03-07 09:24:00,34.0,17.3,30.56,WSW,252,2.0,0.0,50,0.00,,,0.00,78,WeatherHawk,2013-03-07 14:24:00,
2013-03-07 09:29:00,34.6,17.9,30.57,North,3,2.0,0.0,50,0.00,,,0.00,71,WeatherHawk,2013-03-07 14:29:00,
2013-03-07 09:34:00,34.5,17.4,30.56,WNW,286,3.0,0.0,49,0.00,,,0.00,80,WeatherHawk,2013-03-07 14:34:00,
2013-03-07 09:39:00,34.2,17.0,30.57,WSW,243,2.0,0.0,49,0.00,,,0.00,84,WeatherHawk,2013-03-07 14:39:00,
2013-03-07 09:44:00,34.9,17.7,30.56,WSW,242,2.0,-999.0,49,0.00,,,0.00,108,WeatherHawk,2013-03-07 14:44:00,
2013-03-07 09:49:00,34.9,17.7,30.56,West,265,1.0,0.0,49,0.00,,,0.00,110,WeatherHawk,2013-03-07 14:49:00,
2013-03-07 09:54:00,34.6,16.9,30.56,SW,236,4.0,0.0,48,0.00,,,0.00,113,WeatherHawk,2013-03-07 14:54:00,
2013-03-07 09:59:00,35.5,17.3,30.56,North,3,2.0,-999.0,47,0.00,,,0.00,119,WeatherHawk,2013-03-07 14:59:00,
2013-03-07 10:04:00,34.5,16.4,30.56,WSW,248,4.0,-999.0,47,0.00,,,0.00,131,WeatherHawk,2013-03-07 15:04:00,
2013-03-07 10:09:00,35.5,17.3,30.55,WNW,289,1.0,0.0,47,0.00,,,0.00,134,WeatherHawk,2013-03-07 15:09:00,
2013-03-07 10:14:00,35.8,16.6,30.56,West,268,2.0,0.0,45,0.00,,,0.00,143,WeatherHawk,2013-03-07 15:14:00,
2013-03-07 10:19:00,35.9,15.6,30.55,WSW,246,2.0,0.0,43,0.00,,,0.00,167,WeatherHawk,2013-03-07 15:19:00,
2013-03-07 10:24:00,36.6,16.3,30.55,NNW,340,1.0,0.0,43,0.00,,,0.00,175,WeatherHawk,2013-03-07 15:24:00,
2013-03-07 10:29:00,36.9,16.0,30.55,North,0,0.0,-999.0,42,0.00,,,0.00,190,WeatherHawk,2013-03-07 15:29:00,
2013-03-07 10:34:00,36.9,15.5,30.55,NW,315,0.0,0.0,41,0.00,,,0.00,202,WeatherHawk,2013-03-07 15:34:00,
2013-03-07 10:39:00,36.7,14.6,30.55,SW,218,1.0,0.0,40,0.00,,,0.00,173,WeatherHawk,2013-03-07 15:39:00,
2013-03-07 10:44:00,37.2,15.7,30.55,North,351,0.0,0.0,41,0.00,,,0.00,145,WeatherHawk,2013-03-07 15:44:00,
2013-03-07 10:49:00,37.6,15.5,30.55,ENE,71,2.0,0.0,40,0.00,,,0.00,179,WeatherHawk,2013-03-07 15:49:00,
2013-03-07 10:54:00,35.6,13.6,30.54,NW,316,5.0,0.0,40,0.00,,,0.00,155,WeatherHawk,2013-03-07 15:54:00,
2013-03-07 10:59:00,37.6,14.9,30.55,West,280,1.0,0.0,39,0.00,,,0.00,167,WeatherHawk,2013-03-07 15:59:00,
2013-03-07 11:04:00,35.7,13.2,30.55,NW,316,4.0,-999.0,39,0.00,,,0.00,138,WeatherHawk,2013-03-07 16:04:00,
2013-03-07 11:09:00,36.4,14.4,30.54,West,277,4.0,0.0,40,0.00,,,0.00,150,WeatherHawk,2013-03-07 16:09:00,
2013-03-07 11:14:00,36.6,13.4,30.54,West,261,3.0,-999.0,38,0.00,,,0.00,136,WeatherHawk,2013-03-07 16:14:00,
2013-03-07 11:19:00,37.7,15.6,30.55,NW,318,1.0,0.0,40,0.00,,,0.00,153,WeatherHawk,2013-03-07 16:19:00,
2013-03-07 11:24:00,37.6,14.9,30.56,West,266,6.0,-999.0,39,0.00,,,0.00,159,WeatherHawk,2013-03-07 16:24:00,
2013-03-07 11:29:00,37.0,14.4,30.55,WSW,255,2.0,0.0,39,0.00,,,0.00,145,WeatherHawk,2013-03-07 16:29:00,
2013-03-07 11:35:00,36.7,14.1,30.55,NW,305,2.0,-999.0,39,0.00,,,0.00,182,WeatherHawk,2013-03-07 16:35:00,
2013-03-07 11:40:00,36.7,12.9,30.55,West,265,4.0,0.0,37,0.00,,,0.00,169,WeatherHawk,2013-03-07 16:40:00,
2013-03-07 11:45:00,37.5,13.6,30.55,West,263,5.0,0.0,37,0.00,,,0.00,183,WeatherHawk,2013-03-07 16:45:00,
2013-03-07 11:51:00,37.6,13.7,30.55,WSW,247,4.0,0.0,37,0.00,,,0.00,167,WeatherHawk,2013-03-07 16:51:00,
2013-03-07 11:56:00,37.3,12.8,30.55,WNW,300,3.0,0.0,36,0.00,,,0.00,179,WeatherHawk,2013-03-07 16:56:00,
2013-03-07 12:01:00,37.3,12.8,30.54,West,275,3.0,0.0,36,0.00,,,0.00,212,WeatherHawk,2013-03-07 17:01:00,
2013-03-07 12:06:00,39.7,14.9,30.54,NW,324,1.0,0.0,36,0.00,,,0.00,299,WeatherHawk,2013-03-07 17:06:00,
2013-03-07 12:11:00,38.4,11.8,30.54,WNW,300,4.0,0.0,33,0.00,,,0.00,239,WeatherHawk,2013-03-07 17:11:00,
2013-03-07 12:16:00,37.5,11.7,30.54,WNW,289,0.0,0.0,34,0.00,,,0.00,189,WeatherHawk,2013-03-07 17:16:00,
2013-03-07 12:21:00,37.5,11.0,30.54,WNW,297,4.0,0.0,33,0.00,,,0.00,144,WeatherHawk,2013-03-07 17:21:00,
2013-03-07 12:26:00,37.6,11.8,30.54,WNW,303,5.0,0.0,34,0.00,,,0.00,170,WeatherHawk,2013-03-07 17:26:00,
2013-03-07 12:32:00,40.0,15.3,30.54,WNW,294,1.0,0.0,36,0.00,,,0.00,184,WeatherHawk,2013-03-07 17:32:00,
2013-03-07 12:37:00,37.8,12.0,30.53,NW,324,4.0,0.0,34,0.00,,,0.00,174,WeatherHawk,2013-03-07 17:37:00,
2013-03-07 12:42:00,39.6,13.6,30.54,West,277,1.0,0.0,34,0.00,,,0.00,143,WeatherHawk,2013-03-07 17:42:00,
2013-03-07 12:47:00,39.1,13.1,30.54,NNW,334,2.0,0.0,34,0.00,,,0.00,139,WeatherHawk,2013-03-07 17:47:00,
2013-03-07 12:52:00,37.5,11.7,30.53,NNW,331,5.0,0.0,34,0.00,,,0.00,161,WeatherHawk,2013-03-07 17:52:00,
2013-03-07 12:57:00,37.9,12.7,30.54,WSW,249,4.0,0.0,35,0.00,,,0.00,155,WeatherHawk,2013-03-07 17:57:00,
2013-03-07 13:03:00,38.3,12.4,30.53,West,265,4.0,0.0,34,0.00,,,0.00,161,WeatherHawk,2013-03-07 18:03:00,
2013-03-07 13:08:00,39.6,12.9,30.53,West,273,2.0,0.0,33,0.00,,,0.00,192,WeatherHawk,2013-03-07 18:08:00,
2013-03-07 13:13:00,39.0,12.3,30.53,NNW,332,4.0,0.0,33,0.00,,,0.00,155,WeatherHawk,2013-03-07 18:13:00,
2013-03-07 13:19:00,38.3,11.7,30.53,West,259,7.0,0.0,33,0.00,,,0.00,172,WeatherHawk,2013-03-07 18:19:00,
2013-03-07 13:24:00,39.6,12.9,30.52,WSW,256,3.0,0.0,33,0.00,,,0.00,193,WeatherHawk,2013-03-07 18:24:00,
2013-03-07 13:29:00,38.9,11.6,30.52,NW,314,3.0,0.0,32,0.00,,,0.00,183,WeatherHawk,2013-03-07 18:29:00,
2013-03-07 13:34:00,39.3,11.2,30.51,NW,310,0.0,0.0,31,0.00,,,0.00,214,WeatherHawk,2013-03-07 18:34:00,
2013-03-07 13:39:00,39.6,10.0,30.52,West,271,3.0,0.0,29,0.00,,,0.00,198,WeatherHawk,2013-03-07 18:39:00,
2013-03-07 13:44:00,38.8,10.8,30.51,WSW,254,5.0,0.0,31,0.00,,,0.00,184,WeatherHawk,2013-03-07 18:44:00,
2013-03-07 13:49:00,40.5,12.3,30.51,WSW,247,1.0,0.0,31,0.00,,,0.00,167,WeatherHawk,2013-03-07 18:49:00,
2013-03-07 13:54:00,41.7,14.1,30.51,WNW,286,0.0,0.0,32,0.00,,,0.00,152,WeatherHawk,2013-03-07 18:54:00,
2013-03-07 13:59:00,40.0,10.3,30.51,WNW,294,0.0,0.0,29,0.00,,,0.00,167,WeatherHawk,2013-03-07 18:59:00,
2013-03-07 14:04:00,40.6,10.1,30.50,West,278,1.0,0.0,28,0.00,,,0.00,202,WeatherHawk,2013-03-07 19:04:00,
2013-03-07 14:09:00,39.9,9.4,30.50,WNW,285,2.0,0.0,28,0.00,,,0.00,223,WeatherHawk,2013-03-07 19:09:00,
2013-03-07 14:14:00,42.0,9.7,30.51,SSW,212,1.0,0.0,26,0.00,,,0.00,226,WeatherHawk,2013-03-07 19:14:00,
2013-03-07 14:19:00,40.5,10.0,30.50,WSW,250,2.0,0.0,28,0.00,,,0.00,220,WeatherHawk,2013-03-07 19:19:00,
2013-03-07 14:24:00,39.7,10.1,30.50,NW,319,0.0,0.0,29,0.00,,,0.00,183,WeatherHawk,2013-03-07 19:24:00,
2013-03-07 14:29:00,39.1,7.2,30.49,WNW,302,2.0,0.0,26,0.00,,,0.00,168,WeatherHawk,2013-03-07 19:29:00,
2013-03-07 14:34:00,41.8,9.5,30.50,WNW,292,0.0,0.0,26,0.00,,,0.00,183,WeatherHawk,2013-03-07 19:34:00,
2013-03-07 14:39:00,39.9,9.5,30.50,West,259,1.0,-999.0,28,0.00,,,0.00,173,WeatherHawk,2013-03-07 19:39:00,
2013-03-07 14:44:00,40.3,9.8,30.50,NNW,339,2.0,0.0,28,0.00,,,0.00,157,WeatherHawk,2013-03-07 19:44:00,
2013-03-07 14:49:00,41.2,8.9,30.50,WNW,299,0.0,0.0,26,0.00,,,0.00,239,WeatherHawk,2013-03-07 19:49:00,
2013-03-07 14:54:00,40.7,7.6,30.50,WSW,248,2.0,0.0,25,0.00,,,0.00,226,WeatherHawk,2013-03-07 19:54:00,
2013-03-07 14:59:00,40.2,8.1,30.50,NW,314,3.0,0.0,26,0.00,,,0.00,199,WeatherHawk,2013-03-07 19:59:00,
2013-03-07 15:04:00,41.6,9.3,30.50,North,10,0.0,-999.0,26,0.00,,,0.00,166,WeatherHawk,2013-03-07 20:04:00,
2013-03-07 15:09:00,42.2,10.7,30.50,WNW,293,0.0,0.0,27,0.00,,,0.00,183,WeatherHawk,2013-03-07 20:09:00,
2013-03-07 15:14:00,42.6,10.1,30.51,North,4,2.0,0.0,26,0.00,,,0.00,215,WeatherHawk,2013-03-07 20:14:00,
2013-03-07 15:19:00,41.9,9.6,30.50,West,280,0.0,0.0,26,0.00,,,0.00,193,WeatherHawk,2013-03-07 20:19:00,
2013-03-07 15:24:00,41.7,7.6,30.50,WNW,291,0.0,0.0,24,0.00,,,0.00,131,WeatherHawk,2013-03-07 20:24:00,
2013-03-07 15:29:00,41.6,10.2,30.50,WNW,289,0.0,-999.0,27,0.00,,,0.00,84,WeatherHawk,2013-03-07 20:29:00,
2013-03-07 15:34:00,42.4,11.6,30.51,WSW,256,0.0,0.0,28,0.00,,,0.00,88,WeatherHawk,2013-03-07 20:34:00,
2013-03-07 15:39:00,39.9,7.8,30.50,West,268,3.0,0.0,26,0.00,,,0.00,93,WeatherHawk,2013-03-07 20:39:00,
2013-03-07 15:44:00,41.0,11.2,30.50,SW,218,1.0,0.0,29,0.00,,,0.00,114,WeatherHawk,2013-03-07 20:44:00,
2013-03-07 15:49:00,41.5,11.6,30.51,WSW,254,0.0,-999.0,29,0.00,,,0.00,140,WeatherHawk,2013-03-07 20:49:00,
2013-03-07 15:54:00,42.2,10.6,30.51,WSW,258,0.0,0.0,27,0.00,,,0.00,152,WeatherHawk,2013-03-07 20:54:00,
2013-03-07 15:59:00,41.5,9.2,30.51,WNW,296,0.0,0.0,26,0.00,,,0.00,145,WeatherHawk,2013-03-07 20:59:00,
2013-03-07 16:04:00,43.7,12.0,30.50,WSW,244,0.0,0.0,27,0.00,,,0.00,119,WeatherHawk,2013-03-07 21:04:00,
2013-03-07 16:09:00,40.9,10.4,30.51,SW,222,4.0,0.0,28,0.00,,,0.00,87,WeatherHawk,2013-03-07 21:09:00,
2013-03-07 16:14:00,40.7,11.7,30.50,ESE,121,1.0,-999.0,30,0.00,,,0.00,54,WeatherHawk,2013-03-07 21:14:00,
2013-03-07 16:19:00,41.1,12.1,30.51,NNW,338,0.0,0.0,30,0.00,,,0.00,32,WeatherHawk,2013-03-07 21:19:00,
2013-03-07 16:24:00,39.3,12.6,30.51,West,270,3.0,0.0,33,0.00,,,0.00,28,WeatherHawk,2013-03-07 21:24:00,
2013-03-07 16:29:00,39.4,13.4,30.51,West,276,4.0,0.0,34,0.00,,,0.00,33,WeatherHawk,2013-03-07 21:29:00,
2013-03-07 16:34:00,39.6,14.8,30.51,WSW,246,1.0,0.0,36,0.00,,,0.00,39,WeatherHawk,2013-03-07 21:34:00,
2013-03-07 16:39:00,39.1,14.4,30.52,SSW,207,5.0,0.0,36,0.00,,,0.00,47,WeatherHawk,2013-03-07 21:39:00,
2013-03-07 16:44:00,39.3,14.6,30.52,WNW,286,3.0,-999.0,36,0.00,,,0.00,41,WeatherHawk,2013-03-07 21:44:00,
2013-03-07 16:49:00,39.3,14.6,30.52,WSW,258,2.0,0.0,36,0.00,,,0.00,53,WeatherHawk,2013-03-07 21:49:00,
2013-03-07 16:54:00,39.6,14.8,30.52,WSW,243,1.0,-999.0,36,0.00,,,0.00,63,WeatherHawk,2013-03-07 21:54:00,
2013-03-07 16:59:00,39.7,15.0,30.53,WSW,245,2.0,0.0,36,0.00,,,0.00,59,WeatherHawk,2013-03-07 21:59:00,
2013-03-07 17:04:00,38.8,14.2,30.53,West,260,4.0,0.0,36,0.00,,,0.00,43,WeatherHawk,2013-03-07 22:04:00,
2013-03-07 17:09:00,39.8,15.6,30.53,SW,231,0.0,0.0,37,0.00,,,0.00,31,WeatherHawk,2013-03-07 22:09:00,
2013-03-07 17:14:00,39.8,15.7,30.53,NE,50,2.0,0.0,37,0.00,,,0.00,36,WeatherHawk,2013-03-07 22:14:00,
2013-03-07 17:19:00,39.1,14.4,30.53,West,267,2.0,0.0,36,0.00,,,0.00,38,WeatherHawk,2013-03-07 22:19:00,
2013-03-07 17:24:00,40.5,16.3,30.54,SSW,203,0.0,0.0,37,0.00,,,0.00,38,WeatherHawk,2013-03-07 22:24:00,
2013-03-07 17:29:00,38.7,14.7,30.54,West,265,4.0,0.0,37,0.00,,,0.00,34,WeatherHawk,2013-03-07 22:29:00,
2013-03-07 17:34:00,39.4,14.7,30.54,WSW,253,3.0,0.0,36,0.00,,,0.00,26,WeatherHawk,2013-03-07 22:34:00,
2013-03-07 17:39:00,39.7,15.6,30.55,West,265,3.0,0.0,37,0.00,,,0.00,28,WeatherHawk,2013-03-07 22:39:00,
2013-03-07 17:44:00,39.0,15.0,30.54,WSW,238,2.0,-999.0,37,0.00,,,0.00,19,WeatherHawk,2013-03-07 22:44:00,
2013-03-07 17:49:00,39.9,16.3,30.55,NW,310,1.0,0.0,38,0.00,,,0.00,15,WeatherHawk,2013-03-07 22:49:00,
2013-03-07 17:54:00,39.6,16.2,30.54,SW,226,0.0,0.0,38,0.00,,,0.00,19,WeatherHawk,2013-03-07 22:54:00,
2013-03-07 17:59:00,38.7,15.9,30.54,WSW,249,3.0,0.0,39,0.00,,,0.00,18,WeatherHawk,2013-03-07 22:59:00,
2013-03-07 18:04:00,38.6,16.4,30.54,SW,228,2.0,-999.0,40,0.00,,,0.00,11,WeatherHawk,2013-03-07 23:04:00,
2013-03-07 18:09:00,38.6,16.4,30.56,WSW,247,0.0,0.0,40,0.00,,,0.00,7,WeatherHawk,2013-03-07 23:09:00,
2013-03-07 18:14:00,39.4,17.2,30.55,NW,304,4.0,-999.0,40,0.00,,,0.00,4,WeatherHawk,2013-03-07 23:14:00,
2013-03-07 18:19:00,38.7,16.5,30.55,West,267,5.0,0.0,40,0.00,,,0.00,3,WeatherHawk,2013-03-07 23:19:00,
2013-03-07 18:24:00,38.7,15.9,30.56,WNW,284,4.0,-999.0,39,0.00,,,0.00,1,WeatherHawk,2013-03-07 23:24:00,
2013-03-07 18:29:00,38.6,16.4,30.56,SW,236,0.0,0.0,40,0.00,,,0.00,1,WeatherHawk,2013-03-07 23:29:00,
2013-03-07 18:34:00,38.7,16.4,30.56,SW,228,0.0,0.0,40,0.00,,,0.00,2,WeatherHawk,2013-03-07 23:34:00,
2013-03-07 18:39:00,39.7,17.4,30.56,WNW,283,1.0,-999.0,40,0.00,,,0.00,0,WeatherHawk,2013-03-07 23:39:00,
2013-03-07 18:44:00,38.0,15.9,30.56,West,273,2.0,0.0,40,0.00,,,0.00,1,WeatherHawk,2013-03-07 23:44:00,
2013-03-07 18:49:00,38.8,17.2,30.56,WNW,286,1.0,0.0,41,0.00,,,0.00,0,WeatherHawk,2013-03-07 23:49:00,
2013-03-07 18:54:00,40.3,18.5,30.56,WNW,289,0.0,-999.0,41,0.00,,,0.00,0,WeatherHawk,2013-03-07 23:54:00,
2013-03-07 18:59:00,38.5,16.9,30.56,WSW,244,0.0,0.0,41,0.00,,,0.00,0,WeatherHawk,2013-03-07 23:59:00,
2013-03-07 19:04:00,37.6,17.2,30.56,WSW,253,0.0,-999.0,43,0.00,,,0.00,0,WeatherHawk,2013-03-08 00:04:00,
2013-03-07 19:09:00,37.7,17.8,30.56,West,263,2.0,0.0,44,0.00,,,0.00,0,WeatherHawk,2013-03-08 00:09:00,
2013-03-07 19:14:00,37.6,18.2,30.56,SW,230,0.0,-999.0,45,0.00,,,0.00,0,WeatherHawk,2013-03-08 00:14:00,
2013-03-07 19:19:00,37.4,18.1,30.57,WSW,245,4.0,0.0,45,0.00,,,0.00,1,WeatherHawk,2013-03-08 00:19:00,
2013-03-07 19:24:00,37.5,18.6,30.57,WNW,296,0.0,0.0,46,0.00,,,0.00,0,WeatherHawk,2013-03-08 00:24:00,
2013-03-07 19:29:00,37.4,18.0,30.57,SW,230,1.0,0.0,45,0.00,,,0.00,0,WeatherHawk,2013-03-08 00:29:00,
2013-03-07 19:34:00,37.2,18.4,30.57,SSW,201,3.0,-999.0,46,0.00,,,0.00,0,WeatherHawk,2013-03-08 00:34:00,
2013-03-07 19:39:00,37.3,18.5,30.57,WSW,239,0.0,-999.0,46,0.00,,,0.00,0,WeatherHawk,2013-03-08 00:39:00,
2013-03-07 19:44:00,37.1,18.3,30.57,WSW,237,0.0,0.0,46,0.00,,,0.00,0,WeatherHawk,2013-03-08 00:44:00,
2013-03-07 19:49:00,37.1,18.2,30.57,West,263,3.0,0.0,46,0.00,,,0.00,1,WeatherHawk,2013-03-08 00:49:00,
2013-03-07 19:54:00,37.6,18.7,30.58,WSW,251,3.0,0.0,46,0.00,,,0.00,0,WeatherHawk,2013-03-08 00:54:00,
2013-03-07 19:59:00,37.0,18.2,30.58,SW,220,2.0,0.0,46,0.00,,,0.00,1,WeatherHawk,2013-03-08 00:59:00,
2013-03-07 20:04:00,36.9,18.5,30.58,West,276,3.0,0.0,47,0.00,,,0.00,0,WeatherHawk,2013-03-08 01:04:00,
2013-03-07 20:09:00,36.9,18.6,30.58,WSW,253,2.0,0.0,47,0.00,,,0.00,0,WeatherHawk,2013-03-08 01:09:00,
2013-03-07 20:14:00,36.7,18.3,30.59,WSW,239,2.0,0.0,47,0.00,,,0.00,0,WeatherHawk,2013-03-08 01:14:00,
2013-03-07 20:19:00,37.0,18.7,30.59,NW,316,1.0,-999.0,47,0.00,,,0.00,0,WeatherHawk,2013-03-08 01:19:00,
2013-03-07 20:24:00,36.8,18.9,30.59,WSW,256,3.0,-999.0,48,0.00,,,0.00,1,WeatherHawk,2013-03-08 01:24:00,
2013-03-07 20:29:00,36.6,18.8,30.59,NW,308,0.0,-999.0,48,0.00,,,0.00,0,WeatherHawk,2013-03-08 01:29:00,
2013-03-07 20:34:00,36.6,18.8,30.58,West,275,1.0,-999.0,48,0.00,,,0.00,0,WeatherHawk,2013-03-08 01:34:00,
2013-03-07 20:39:00,36.6,18.8,30.59,WSW,255,0.0,-999.0,48,0.00,,,0.00,1,WeatherHawk,2013-03-08 01:39:00,
2013-03-07 20:44:00,36.6,18.8,30.58,West,270,0.0,0.0,48,0.00,,,0.00,0,WeatherHawk,2013-03-08 01:44:00,
2013-03-07 20:49:00,36.7,18.8,30.59,West,259,0.0,0.0,48,0.00,,,0.00,0,WeatherHawk,2013-03-08 01:49:00,
2013-03-07 20:55:00,36.5,18.7,30.59,ESE,115,1.0,-999.0,48,0.00,,,0.00,0,WeatherHawk,2013-03-08 01:55:00,
2013-03-07 21:00:00,36.6,18.8,30.58,WNW,294,1.0,-999.0,48,0.00,,,0.00,0,WeatherHawk,2013-03-08 02:00:00,
2013-03-07 21:05:00,36.3,18.5,30.59,West,277,3.0,0.0,48,0.00,,,0.00,0,WeatherHawk,2013-03-08 02:05:00,
2013-03-07 21:10:00,36.4,18.6,30.59,WSW,252,2.0,0.0,48,0.00,,,0.00,0,WeatherHawk,2013-03-08 02:10:00,
2013-03-07 21:15:00,36.4,19.1,30.58,WSW,254,0.0,0.0,49,0.00,,,0.00,0,WeatherHawk,2013-03-08 02:15:00,
2013-03-07 21:20:00,36.3,19.0,30.59,SE,146,1.0,0.0,49,0.00,,,0.00,0,WeatherHawk,2013-03-08 02:20:00,
2013-03-07 21:25:00,36.0,19.2,30.59,SW,234,0.0,0.0,50,0.00,,,0.00,0,WeatherHawk,2013-03-08 02:25:00,
2013-03-07 21:30:00,36.0,19.7,30.60,West,265,0.0,0.0,51,0.00,,,0.00,1,WeatherHawk,2013-03-08 02:30:00,
2013-03-07 21:35:00,35.9,19.1,30.59,WNW,290,0.0,0.0,50,0.00,,,0.00,0,WeatherHawk,2013-03-08 02:35:00,
2013-03-07 21:41:00,36.1,19.3,30.60,NW,309,2.0,0.0,50,0.00,,,0.00,1,WeatherHawk,2013-03-08 02:41:00,
2013-03-07 21:46:00,35.8,19.4,30.59,NNW,340,0.0,0.0,51,0.00,,,0.00,1,WeatherHawk,2013-03-08 02:46:00,
2013-03-07 21:51:00,35.8,19.5,30.60,West,273,0.0,0.0,51,0.00,,,0.00,0,WeatherHawk,2013-03-08 02:51:00,
2013-03-07 21:56:00,35.6,19.3,30.60,WNW,284,2.0,0.0,51,0.00,,,0.00,0,WeatherHawk,2013-03-08 02:56:00,
2013-03-07 22:01:00,35.5,19.6,30.60,WNW,298,0.0,0.0,52,0.00,,,0.00,1,WeatherHawk,2013-03-08 03:01:00,
2013-03-07 22:06:00,35.2,19.8,30.60,WNW,288,0.0,0.0,53,0.00,,,0.00,1,WeatherHawk,2013-03-08 03:06:00,
2013-03-07 22:11:00,35.1,19.7,30.60,WSW,250,0.0,0.0,53,0.00,,,0.00,0,WeatherHawk,2013-03-08 03:11:00,
2013-03-07 22:16:00,34.3,19.8,30.61,WSW,255,0.0,0.0,55,0.00,,,0.00,0,WeatherHawk,2013-03-08 03:16:00,
2013-03-07 22:21:00,34.5,20.8,30.62,West,260,0.0,0.0,57,0.00,,,0.00,0,WeatherHawk,2013-03-08 03:21:00,
2013-03-07 22:26:00,33.6,20.5,30.60,WSW,242,0.0,0.0,58,0.00,,,0.00,0,WeatherHawk,2013-03-08 03:26:00,
2013-03-07 22:31:00,33.6,22.0,30.61,WSW,242,0.0,0.0,62,0.00,,,0.00,0,WeatherHawk,2013-03-08 03:31:00,
2013-03-07 22:36:00,33.2,22.0,30.61,West,261,0.0,0.0,63,0.00,,,0.00,0,WeatherHawk,2013-03-08 03:36:00,
2013-03-07 22:42:00,33.7,22.8,30.62,NW,316,0.0,0.0,64,0.00,,,0.00,0,WeatherHawk,2013-03-08 03:42:00,
2013-03-07 22:47:00,33.4,22.9,30.61,SW,233,0.0,0.0,65,0.00,,,0.00,1,WeatherHawk,2013-03-08 03:47:00,
2013-03-07 22:52:00,33.6,23.1,30.62,WNW,302,0.0,0.0,65,0.00,,,0.00,1,WeatherHawk,2013-03-08 03:52:00,
2013-03-07 22:58:00,33.1,23.0,30.61,West,270,0.0,0.0,66,0.00,,,0.00,0,WeatherHawk,2013-03-08 03:58:00,
2013-03-07 23:03:00,33.3,23.6,30.62,WNW,285,0.0,0.0,67,0.00,,,0.00,0,WeatherHawk,2013-03-08 04:03:00,
2013-03-07 23:08:00,33.5,23.4,30.61,NW,308,0.0,0.0,66,0.00,,,0.00,0,WeatherHawk,2013-03-08 04:08:00,
2013-03-07 23:13:00,33.4,23.3,30.61,NW,314,0.0,0.0,66,0.00,,,0.00,0,WeatherHawk,2013-03-08 04:13:00,
2013-03-07 23:18:00,32.0,22.0,30.62,NW,325,0.0,0.0,66,0.00,,,0.00,0,WeatherHawk,2013-03-08 04:18:00,
2013-03-07 23:23:00,33.0,23.9,30.61,WNW,302,0.0,0.0,69,0.00,,,0.00,0,WeatherHawk,2013-03-08 04:23:00,
2013-03-07 23:28:00,32.8,23.5,30.62,WNW,287,0.0,0.0,68,0.00,,,0.00,0,WeatherHawk,2013-03-08 04:28:00,
2013-03-07 23:33:00,32.7,23.4,30.61,WSW,242,0.0,0.0,68,0.00,,,0.00,0,WeatherHawk,2013-03-08 04:33:00,
2013-03-07 23:38:00,32.9,23.5,30.63,NW,309,0.0,0.0,68,0.00,,,0.00,0,WeatherHawk,2013-03-08 04:38:00,
2013-03-07 23:43:00,31.9,22.5,30.61,WNW,285,0.0,0.0,68,0.00,,,0.00,0,WeatherHawk,2013-03-08 04:43:00,
2013-03-07 23:48:00,31.8,22.4,30.61,NNW,341,0.0,0.0,68,0.00,,,0.00,0,WeatherHawk,2013-03-08 04:48:00,
2013-03-07 23:53:00,32.7,24.4,30.62,North,349,1.0,0.0,71,0.00,,,0.00,0,WeatherHawk,2013-03-08 04:53:00,
2013-03-07 23:58:00,31.6,22.9,30.61,NW,318,0.0,0.0,70,0.00,,,0.00,0,WeatherHawk,2013-03-08 04:58:00,